Search for airport 
image banner adimage banner adimage banner ad
image banner ad

CL58 - Sce Southeastern Division

Located in Santa Ana, United States

ICAO - CL58, IATA -

Data provided by Airmate  

General information

Coordinates: N33°43'51" W117°50'50"
Elevation is 97 feet MSL.
Magnetic variation is 14° East
View others Airports in California

Operational data

Special qualification required
Current time UTC:
Current local time:
METAR: KSNA 211253Z 26003KT 10SM OVC015 18/13 A2995 RMK AO2 SLP142 T01830133
TAF: KSNA 211140Z 2112/2212 21004KT P6SM OVC012 FM211800 24009KT P6SM FEW015 FM220200 23005KT P6SM SCT013 FM220500 VRB04KT P6SM OVC012
View NOTAMs / SUP AIP / TFR affecting this airport [VIEW]
Communications frequencies: [VIEW]

Runways:

Airport contact information

Address: Santa Ana United States

Satellite view of CL58